Address 0xf49c4eff89d20aed2b1e642661867d35edd4fdaf

 
 
Txn Hash
Block
From
To
Value [Txn Fee]
0xf7fc1f91aa1e1b9fbedb290640dd2bbd5ac06663b8620f6d25461f124083c61a95573832021-07-28 21:24:314 mins ago0xf49c4eff89d20aed2b1e642661867d35edd4fdafOUT 0x16d12bbdd19bf74290afc72feeedc726a1904da90 BNB0.00018396
0xa4fc01f4aa374e92a8852ba92bb9b4c83c81a07be84569265ac0d042bd30bebf95573112021-07-28 21:20:538 mins ago0xf49c4eff89d20aed2b1e642661867d35edd4fdafOUT 0xf1c873afbf1a9d01c1c09c7124c4ad759b2e4e110 BNB0.000230025
0x0022b3056e479e8a89fef04736b1a4ef2ee6820cc70b9de76d4327e9dabc128895570932021-07-28 21:09:5918 mins ago0xf49c4eff89d20aed2b1e642661867d35edd4fdafOUT 0xe75bfbf8863d69b3b3a922cc56c99fb6e986f4760 BNB0.000184365
0x4abdd8700515c697d99403a46dfb3186ef39ecebafccf9aa8dcf8b11d823d15e95568362021-07-28 20:57:0531 mins ago0xf49c4eff89d20aed2b1e642661867d35edd4fdafOUT 0xf1c873afbf1a9d01c1c09c7124c4ad759b2e4e110 BNB0.000253998
0x3140fd993b541792931220340aa021952e149bb5a9eeb25005e6025eebcd76db95568282021-07-28 20:56:4132 mins ago0xf49c4eff89d20aed2b1e642661867d35edd4fdafOUT 0xb00b243fc9e855d3b313e31b167bc25130f801220 BNB0.000184135
0x67dc8d4ba957e2142688d6bdde9114f6da0081b45abea7e51255c26bd5ba325c95566352021-07-28 20:46:5542 mins ago0xf49c4eff89d20aed2b1e642661867d35edd4fdafOUT 0x22c88156e08218f5551460b491d8436b34be92ca0 BNB0.000184195
0x126735172607315c77ce25af4d79530696dcb50de502ac8c90ff578e385214ae95564992021-07-28 20:40:0748 mins ago0xf49c4eff89d20aed2b1e642661867d35edd4fdafOUT 0xe75bfbf8863d69b3b3a922cc56c99fb6e986f4760 BNB0.0002433618
0x1e770523e9de4a3c2124caf211e2fb856edf8f37c22d4baa7f53f371993be2e195563722021-07-28 20:33:4655 mins ago0xf49c4eff89d20aed2b1e642661867d35edd4fdafOUT 0x16d12bbdd19bf74290afc72feeedc726a1904da90 BNB0.000243768
0xc91e5e530001946fd1829d5cc257f9ff6e9f5afd3dfde322f3d3ef5bf213aaf595563462021-07-28 20:32:2856 mins ago0xf49c4eff89d20aed2b1e642661867d35edd4fdafOUT 0xb00b243fc9e855d3b313e31b167bc25130f801220 BNB0.000175315043
0xa6b749d02bed37561ad7a8fa82cc4cf40641fd708edcfbb1c17ca3a17f12a6f195562242021-07-28 20:26:221 hr 2 mins ago0xf49c4eff89d20aed2b1e642661867d35edd4fdafOUT 0x403473f684d791a3646c7539158f11784977d2c10 BNB0.000230145
0x775a9c32d71f03b6be2617f5ad757c10946d00f8f34b241c8952d7a3ca2f325695561652021-07-28 20:23:251 hr 5 mins ago0xf49c4eff89d20aed2b1e642661867d35edd4fdafOUT 0x403473f684d791a3646c7539158f11784977d2c10 BNB0.000275958
0x2b09157cc6bbd028ce37dc6646e174d8c885691dbecc89b90ff1f6e29e411d1f95558732021-07-28 20:08:451 hr 20 mins ago0xf49c4eff89d20aed2b1e642661867d35edd4fdafOUT 0xf1c873afbf1a9d01c1c09c7124c4ad759b2e4e110 BNB0.000211845
0x5f152c23292ba0504bceff1b4f35e30eceeacd7f7716a88161082d9f897d5ce695554952021-07-28 19:49:261 hr 39 mins ago0xf49c4eff89d20aed2b1e642661867d35edd4fdafOUT 0xd3bc4bcfdc268c5be3c08e409de8f748063014430 BNB0.000184135
0x207fd071e55928b2de206090515afcd4abdca0d8680dbcc0bf7ee50d321ad70595554232021-07-28 19:45:491 hr 43 mins ago0xf49c4eff89d20aed2b1e642661867d35edd4fdafOUT 0x22c88156e08218f5551460b491d8436b34be92ca0 BNB0.00021227
0xea9f8ce833d8d4e3600ed23c74e23454bbba518a34bd76ecbdeaecda93d1669095553742021-07-28 19:43:221 hr 45 mins ago0xf49c4eff89d20aed2b1e642661867d35edd4fdafOUT 0xf1c873afbf1a9d01c1c09c7124c4ad759b2e4e110 BNB0.000187935
0xc173c69b7f4885acd416925a5ce7de3f756a2037287d7aad51722653787b21b795553202021-07-28 19:40:401 hr 48 mins ago0xf49c4eff89d20aed2b1e642661867d35edd4fdafOUT 0x403473f684d791a3646c7539158f11784977d2c10 BNB0.0002347479
0x2d16738a04ba19c84d8ba9d514df3715034cd46057f6314dffd603319a72ae0795551782021-07-28 19:33:341 hr 55 mins ago0xf49c4eff89d20aed2b1e642661867d35edd4fdafOUT 0xf1c873afbf1a9d01c1c09c7124c4ad759b2e4e110 BNB0.00110445
0xb14eee7c513475f941f7a26dccb775d9d5af4f9356eab59187fd92b960ca8a9c95548962021-07-28 19:19:282 hrs 9 mins ago0xf49c4eff89d20aed2b1e642661867d35edd4fdafOUT 0xb00b243fc9e855d3b313e31b167bc25130f801220 BNB0.00018425
0x82c7e10e1bfaa285624dbb653db99b88e033f57562f836be79d601622364c68d95548312021-07-28 19:16:132 hrs 12 mins ago0xf49c4eff89d20aed2b1e642661867d35edd4fdafSELF0xf49c4eff89d20aed2b1e642661867d35edd4fdaf0 BNB0.00011655
0xb2802b9bbd903c8760d8296ea68fac4c75daabf301bb76b7af5c734504df2bdf95546492021-07-28 19:06:422 hrs 22 mins ago0xf49c4eff89d20aed2b1e642661867d35edd4fdafOUT 0xe75bfbf8863d69b3b3a922cc56c99fb6e986f4760 BNB0.000220955
0x8a2d2be395eb5611498bf8359c3c892ddb919ed8a62dcf26ae70e3b7b69a575895546062021-07-28 19:04:082 hrs 24 mins ago0xf49c4eff89d20aed2b1e642661867d35edd4fdafOUT 0xf1c873afbf1a9d01c1c09c7124c4ad759b2e4e110 BNB0.000174955
0x9ebb08ffe822bacdb0571f036bc4f0a7b79478480b454d0dd71346c31a09adc795543222021-07-28 18:49:422 hrs 39 mins ago0xf49c4eff89d20aed2b1e642661867d35edd4fdafOUT 0xb00b243fc9e855d3b313e31b167bc25130f801220 BNB0.000184135
0xa1b5f71b374379b6bc204fb69334d4cd1226661ec2e79f9f0621233482c2725495541352021-07-28 18:38:282 hrs 50 mins ago0xf49c4eff89d20aed2b1e642661867d35edd4fdafOUT 0xf1c873afbf1a9d01c1c09c7124c4ad759b2e4e110 BNB0.000202865
0x544910efac491780a76b4176823c1c8f579244d190715a41d9ee729687ff75a495540332021-07-28 18:32:552 hrs 56 mins ago0xf49c4eff89d20aed2b1e642661867d35edd4fdafOUT 0x16d12bbdd19bf74290afc72feeedc726a1904da90 BNB0.0002235805
0x0a44b76188747a79c11a9b11ba89595f44ee18629b0a59654316156496ec423195539712021-07-28 18:29:492 hrs 59 mins ago0xf49c4eff89d20aed2b1e642661867d35edd4fdafOUT 0x22c88156e08218f5551460b491d8436b34be92ca0 BNB0.0002072589
[ Download CSV Export 
Parent Txn Hash Block From To Value
Loading

Contract Name:
0 BNB

Compiler Version
0

Optimization Enabled:
0 BNB

Other Settings:
-NA-
Block Transaction Gas Used Reward
Age Block Fee Address BC Fee Address Voting Power Jailed Incoming
Block Uncle Number Difficulty Gas Used Reward
Loading
Loading
Make sure to use the "Vote Down" button for any spammy posts, and the "Vote Up" for interesting conversations.